Terminal Aerodrome Forecast
Issued by NWS Shreveport, LA

Home | Current Version | Previous Version | Text Only | Print | Product List | Glossary On
Versions: 1 2 3 4 5 6 7 8 9 10 11 12 13 14 15 16 17 18
426
FTUS44 KSHV 221134
TAFTXK
TAF
KTXK 221134Z 2212/2312 20008KT P6SM VCSH BKN100 BKN250
     FM221600 27012G18KT P6SM VCSH BKN100 BKN250
     FM221800 29015G25KT P6SM VCTS BKN040CB BKN100 BKN250
     FM230000 31018G28KT P6SM BKN035
     FM230600 31010KT P6SM SKC=

USA.gov is the U.S. government's official web portal to all federal, state and local government web resources and services.